createdAt,value
2018-01-18T00:00:05.068Z,3.10
2018-01-18T00:02:33.380Z,3.10
2018-01-18T00:05:01.664Z,3.10
2018-01-18T00:07:29.942Z,3.20
2018-01-18T00:09:58.243Z,3.20
2018-01-18T00:12:26.532Z,3.20
2018-01-18T00:14:54.835Z,3.20
2018-01-18T00:17:23.120Z,3.30
2018-01-18T00:19:51.429Z,3.30
2018-01-18T00:22:19.724Z,3.30
2018-01-18T00:24:48.028Z,3.30
2018-01-18T00:27:16.320Z,3.30
2018-01-18T00:29:44.631Z,3.30
2018-01-18T00:32:12.149Z,3.30
2018-01-18T00:34:40.456Z,3.30
2018-01-18T00:37:08.750Z,3.40
2018-01-18T00:39:37.066Z,3.30
2018-01-18T00:42:05.365Z,3.40
2018-01-18T00:44:33.681Z,3.40
2018-01-18T00:47:01.964Z,3.40
2018-01-18T00:49:30.273Z,3.40
2018-01-18T00:51:58.560Z,3.40
2018-01-18T00:54:26.872Z,3.40
2018-01-18T00:56:55.161Z,3.40
2018-01-18T00:59:23.477Z,3.40
2018-01-18T01:01:51.760Z,3.50
2018-01-18T01:04:20.075Z,3.40
2018-01-18T01:06:48.356Z,3.40
2018-01-18T01:09:16.659Z,3.40
2018-01-18T01:11:44.948Z,3.40
2018-01-18T01:14:13.252Z,3.50
2018-01-18T01:16:41.531Z,3.40
2018-01-18T01:19:09.845Z,3.40
2018-01-18T01:21:38.128Z,3.40
2018-01-18T01:24:06.430Z,3.40
2018-01-18T01:26:34.706Z,3.40
2018-01-18T01:29:03.012Z,3.40
2018-01-18T01:31:31.299Z,3.40
2018-01-18T01:33:59.612Z,3.40
2018-01-18T01:36:27.900Z,3.40
2018-01-18T01:38:56.216Z,3.40
2018-01-18T01:41:24.500Z,3.40
2018-01-18T01:43:52.808Z,3.40
2018-01-18T01:46:21.084Z,3.40
2018-01-18T01:48:49.403Z,3.40
2018-01-18T01:51:17.691Z,3.40
2018-01-18T01:53:45.999Z,3.40
2018-01-18T01:56:14.295Z,3.50
2018-01-18T01:58:42.604Z,3.50
2018-01-18T02:01:11.077Z,3.50
2018-01-18T02:03:39.364Z,3.50
2018-01-18T02:06:07.664Z,3.50
2018-01-18T02:08:35.948Z,3.50
2018-01-18T02:11:04.260Z,3.60
2018-01-18T02:13:32.552Z,3.60
2018-01-18T02:16:00.088Z,3.60
2018-01-18T02:18:28.384Z,3.60
2018-01-18T02:20:56.687Z,3.60
2018-01-18T02:23:24.972Z,3.60
2018-01-18T02:25:53.288Z,3.60
2018-01-18T02:28:21.584Z,3.60
2018-01-18T02:30:49.905Z,3.60
2018-01-18T02:33:18.191Z,3.60
2018-01-18T02:35:46.492Z,3.60
2018-01-18T02:38:14.780Z,3.60
2018-01-18T02:40:43.088Z,3.60
2018-01-18T02:43:11.370Z,3.60
2018-01-18T02:45:39.679Z,3.60
2018-01-18T02:48:09.955Z,3.60
2018-01-18T02:50:38.268Z,3.60
2018-01-18T02:53:06.552Z,3.60
2018-01-18T02:55:34.861Z,3.60
2018-01-18T02:58:03.149Z,3.50
2018-01-18T03:00:31.468Z,3.50
2018-01-18T03:02:59.765Z,3.50
2018-01-18T03:05:28.073Z,3.50
2018-01-18T03:07:56.356Z,3.50
2018-01-18T03:10:24.660Z,3.50
2018-01-18T03:12:52.950Z,3.50
2018-01-18T03:15:21.267Z,3.50
2018-01-18T03:17:49.557Z,3.50
2018-01-18T03:20:17.864Z,3.50
2018-01-18T03:22:46.150Z,3.50
2018-01-18T03:25:14.460Z,3.50
2018-01-18T03:27:42.748Z,3.50
2018-01-18T03:30:11.061Z,3.50
2018-01-18T03:32:39.343Z,3.40
2018-01-18T03:35:07.656Z,3.40
2018-01-18T03:37:35.940Z,3.40
2018-01-18T03:40:04.268Z,3.40
2018-01-18T03:42:32.555Z,3.40
2018-01-18T03:45:00.876Z,3.30
2018-01-18T03:47:29.167Z,3.30
2018-01-18T03:49:57.488Z,3.20
2018-01-18T03:52:25.776Z,3.20
2018-01-18T03:54:54.092Z,3.20
2018-01-18T03:57:22.371Z,3.20
2018-01-18T03:59:50.683Z,3.20
2018-01-18T04:02:18.973Z,3.10
2018-01-18T04:04:47.276Z,3.20
2018-01-18T04:07:15.588Z,3.10
2018-01-18T04:09:43.872Z,3.00
2018-01-18T04:12:12.184Z,3.00
2018-01-18T04:14:40.477Z,3.00
2018-01-18T04:17:08.788Z,3.00
2018-01-18T04:19:37.077Z,3.00
2018-01-18T04:22:05.392Z,3.00
2018-01-18T04:24:33.680Z,3.10
2018-01-18T04:27:01.991Z,3.00
2018-01-18T04:29:30.271Z,3.00
2018-01-18T04:31:58.579Z,3.00
2018-01-18T04:34:26.868Z,3.00
2018-01-18T04:36:55.176Z,3.00
2018-01-18T04:39:23.464Z,3.00
2018-01-18T04:41:51.773Z,3.00
2018-01-18T04:44:20.049Z,3.00
2018-01-18T04:46:48.352Z,3.00
2018-01-18T04:49:16.644Z,3.00
2018-01-18T04:51:44.963Z,3.00
2018-01-18T04:54:13.251Z,3.00
2018-01-18T04:56:41.560Z,3.00
2018-01-18T04:59:09.844Z,3.10
2018-01-18T05:01:38.153Z,3.10
2018-01-18T05:04:06.430Z,3.10
2018-01-18T05:06:34.734Z,3.10
2018-01-18T05:09:03.011Z,3.10
2018-01-18T05:11:31.322Z,3.10
2018-01-18T05:13:59.607Z,3.20
2018-01-18T05:16:27.920Z,3.20
2018-01-18T05:18:56.208Z,3.20
2018-01-18T05:21:24.520Z,3.20
2018-01-18T05:23:52.803Z,3.30
2018-01-18T05:26:21.111Z,3.30
2018-01-18T05:28:49.392Z,3.30
2018-01-18T05:31:17.709Z,3.40
2018-01-18T05:33:46.008Z,3.40
2018-01-18T05:36:14.316Z,3.50
2018-01-18T05:38:42.600Z,3.50
2018-01-18T05:41:10.912Z,3.50
2018-01-18T05:43:39.205Z,3.50
2018-01-18T05:46:07.524Z,3.50
2018-01-18T05:48:35.803Z,3.60
2018-01-18T05:51:04.117Z,3.60
2018-01-18T05:53:32.400Z,3.70
2018-01-18T05:56:00.717Z,3.70
2018-01-18T05:58:29.004Z,3.80
2018-01-18T06:00:57.329Z,3.80
2018-01-18T06:03:25.620Z,3.80
2018-01-18T06:05:53.903Z,3.80
2018-01-18T06:08:22.209Z,3.90
2018-01-18T06:10:50.493Z,3.90
2018-01-18T06:13:18.800Z,4.00
2018-01-18T06:15:47.092Z,4.00
2018-01-18T06:18:15.395Z,4.00
2018-01-18T06:20:43.684Z,4.10
2018-01-18T06:23:11.991Z,4.10
2018-01-18T06:25:40.273Z,4.20
2018-01-18T06:28:08.584Z,4.20
2018-01-18T06:30:36.875Z,4.30
2018-01-18T06:33:05.185Z,4.30
2018-01-18T06:35:33.472Z,4.30
2018-01-18T06:38:01.780Z,4.40
2018-01-18T06:40:30.069Z,4.50
2018-01-18T06:42:58.381Z,4.60
2018-01-18T06:45:26.663Z,4.60
2018-01-18T06:47:54.971Z,4.60
2018-01-18T06:50:23.252Z,4.70
2018-01-18T06:52:51.563Z,4.80
2018-01-18T06:55:19.847Z,4.80
2018-01-18T06:57:48.189Z,4.90
2018-01-18T07:00:16.485Z,5.00
2018-01-18T07:02:44.793Z,5.10
2018-01-18T07:05:13.071Z,5.10
2018-01-18T07:07:41.385Z,5.10
2018-01-18T07:10:09.668Z,5.20
2018-01-18T07:12:37.975Z,5.30
2018-01-18T07:15:06.260Z,5.30
2018-01-18T07:17:34.571Z,5.40
2018-01-18T07:20:02.852Z,5.40
2018-01-18T07:22:31.168Z,5.50
2018-01-18T07:24:59.448Z,5.50
2018-01-18T07:27:27.764Z,5.50
2018-01-18T07:29:56.053Z,5.60
2018-01-18T07:32:24.372Z,5.60
2018-01-18T07:34:52.660Z,5.60
2018-01-18T07:37:20.971Z,5.70
2018-01-18T07:39:49.256Z,5.80
2018-01-18T07:42:17.564Z,5.90
2018-01-18T07:44:45.852Z,5.90
2018-01-18T07:47:14.164Z,6.10
2018-01-18T07:49:42.444Z,6.20
2018-01-18T07:52:10.756Z,6.20
2018-01-18T07:54:39.044Z,6.40
2018-01-18T07:57:12.959Z,6.40
2018-01-18T07:59:41.248Z,6.50
2018-01-18T08:02:09.561Z,6.60
2018-01-18T08:04:37.848Z,6.70
2018-01-18T08:07:06.139Z,6.80
2018-01-18T08:09:34.461Z,6.80
2018-01-18T08:12:02.751Z,6.90
2018-01-18T08:14:31.064Z,7.00
2018-01-18T08:16:59.358Z,7.00
2018-01-18T08:19:27.668Z,7.00
2018-01-18T08:21:55.952Z,7.10
2018-01-18T08:24:24.276Z,7.20
2018-01-18T08:26:52.569Z,7.20
2018-01-18T08:29:20.888Z,7.30
2018-01-18T08:31:49.187Z,7.40
2018-01-18T08:34:17.508Z,7.50
2018-01-18T08:36:45.799Z,7.60
2018-01-18T08:39:14.124Z,7.60
2018-01-18T08:41:42.412Z,7.70
2018-01-18T08:44:10.719Z,7.70
2018-01-18T08:46:39.011Z,7.60
2018-01-18T08:49:07.328Z,7.60
2018-01-18T08:51:35.616Z,7.70
2018-01-18T08:54:03.935Z,7.80
2018-01-18T08:56:32.225Z,7.90
2018-01-18T08:59:00.543Z,8.00
2018-01-18T09:01:28.827Z,8.10
2018-01-18T09:03:57.149Z,8.10
2018-01-18T09:06:25.443Z,8.20
2018-01-18T09:08:53.760Z,8.20
2018-01-18T09:11:22.056Z,8.40
2018-01-18T09:13:50.379Z,8.40
2018-01-18T09:16:18.663Z,8.50
2018-01-18T09:18:46.984Z,8.60
2018-01-18T09:21:15.282Z,8.70
2018-01-18T09:23:42.832Z,8.70
2018-01-18T09:26:11.124Z,8.60
2018-01-18T09:28:39.444Z,8.50
2018-01-18T09:31:07.732Z,8.50
2018-01-18T09:33:36.063Z,8.60
2018-01-18T09:36:04.346Z,8.60
2018-01-18T09:38:32.664Z,8.60
2018-01-18T09:41:00.952Z,8.70
2018-01-18T09:43:29.265Z,8.70
2018-01-18T09:45:57.557Z,8.70
2018-01-18T09:48:25.881Z,8.70
2018-01-18T09:50:54.176Z,8.70
2018-01-18T09:53:22.499Z,8.60
2018-01-18T09:55:50.789Z,8.60
2018-01-18T09:58:19.107Z,8.70
2018-01-18T10:00:46.678Z,8.60
2018-01-18T10:03:15.020Z,8.70
2018-01-18T10:05:43.304Z,8.80
2018-01-18T10:08:11.602Z,8.90
2018-01-18T10:10:39.920Z,8.90
2018-01-18T10:13:07.447Z,8.90
2018-01-18T10:15:35.765Z,9.00
2018-01-18T10:18:04.059Z,9.00
2018-01-18T10:20:32.380Z,9.00
2018-01-18T10:23:00.675Z,9.10
2018-01-18T10:25:29.001Z,9.10
2018-01-18T10:27:57.303Z,9.10
2018-01-18T10:30:25.632Z,9.10
2018-01-18T10:32:53.157Z,9.10
2018-01-18T10:35:21.475Z,9.00
2018-01-18T10:37:49.755Z,8.90
2018-01-18T10:40:18.116Z,8.80
2018-01-18T10:42:46.410Z,8.70
2018-01-18T10:45:14.727Z,8.70
2018-01-18T10:47:43.025Z,8.60
2018-01-18T10:50:11.352Z,8.60
2018-01-18T10:52:39.692Z,8.60
2018-01-18T10:55:07.976Z,8.60
2018-01-18T10:57:36.268Z,8.50
2018-01-18T11:00:04.592Z,8.50
2018-01-18T11:02:32.880Z,8.40
2018-01-18T11:05:01.196Z,8.40
2018-01-18T11:07:29.484Z,8.40
2018-01-18T11:09:57.795Z,8.40
2018-01-18T11:12:26.089Z,8.40
2018-01-18T11:14:54.415Z,8.40
2018-01-18T11:17:22.705Z,8.40
2018-01-18T11:19:51.012Z,8.30
2018-01-18T11:22:19.300Z,8.30
2018-01-18T11:24:47.620Z,8.20
2018-01-18T11:27:15.907Z,8.20
2018-01-18T11:29:44.225Z,8.20
2018-01-18T11:32:12.532Z,8.10
2018-01-18T11:34:40.861Z,7.90
2018-01-18T11:37:09.145Z,7.50
2018-01-18T11:39:37.462Z,7.10
2018-01-18T11:42:05.751Z,6.60
2018-01-18T11:44:34.072Z,6.30
2018-01-18T11:47:02.360Z,6.00
2018-01-18T11:49:30.678Z,5.90
2018-01-18T11:51:58.960Z,5.70
2018-01-18T11:54:27.278Z,5.60
2018-01-18T11:56:55.555Z,5.50
2018-01-18T11:59:25.783Z,5.50
2018-01-18T12:01:54.101Z,5.40
2018-01-18T12:04:22.384Z,5.40
2018-01-18T12:06:50.695Z,5.40
2018-01-18T12:09:18.971Z,5.40
2018-01-18T12:11:48.242Z,5.30
2018-01-18T12:14:16.532Z,5.40
2018-01-18T12:16:44.868Z,5.50
2018-01-18T12:19:13.156Z,5.70
2018-01-18T12:21:41.464Z,5.90
2018-01-18T12:24:09.752Z,6.20
2018-01-18T12:26:38.060Z,6.40
2018-01-18T12:29:06.346Z,6.60
2018-01-18T12:31:34.659Z,6.90
2018-01-18T12:34:02.952Z,7.30
2018-01-18T12:36:31.264Z,7.60
2018-01-18T12:38:59.551Z,8.00
2018-01-18T12:41:27.874Z,8.20
2018-01-18T12:43:56.164Z,8.30
2018-01-18T12:46:24.481Z,8.50
2018-01-18T12:48:52.772Z,8.60
2018-01-18T12:51:21.096Z,8.80
2018-01-18T12:53:49.396Z,8.90
2018-01-18T12:56:17.721Z,8.90
2018-01-18T12:58:46.019Z,9.00
2018-01-18T13:01:14.339Z,9.10
2018-01-18T13:03:42.640Z,9.10
2018-01-18T13:06:10.967Z,8.80
2018-01-18T13:08:39.259Z,8.50
2018-01-18T13:11:07.583Z,8.50
2018-01-18T13:13:35.881Z,8.40
2018-01-18T13:16:04.201Z,8.30
2018-01-18T13:18:32.488Z,8.10
2018-01-18T13:21:00.804Z,8.00
2018-01-18T13:23:29.093Z,7.90
2018-01-18T13:25:57.412Z,7.70
2018-01-18T13:28:25.700Z,7.60
2018-01-18T13:30:54.016Z,7.60
2018-01-18T13:33:21.551Z,7.60
2018-01-18T13:35:49.868Z,7.50
2018-01-18T13:38:18.160Z,7.40
2018-01-18T13:40:46.481Z,7.40
2018-01-18T13:43:14.781Z,7.40
2018-01-18T13:45:43.100Z,7.40
2018-01-18T13:48:11.387Z,7.40
2018-01-18T13:50:39.709Z,7.50
2018-01-18T13:53:08.001Z,7.40
2018-01-18T13:55:36.315Z,7.30
2018-01-18T13:58:04.604Z,7.20
2018-01-18T14:00:32.927Z,7.10
2018-01-18T14:03:01.220Z,7.10
2018-01-18T14:05:29.508Z,7.10
2018-01-18T14:07:57.829Z,6.90
2018-01-18T14:10:26.119Z,6.90
2018-01-18T14:12:54.430Z,6.80
2018-01-18T14:15:22.724Z,6.80
2018-01-18T14:17:51.036Z,6.80
2018-01-18T14:20:19.316Z,6.80
2018-01-18T14:22:47.635Z,6.80
2018-01-18T14:25:15.920Z,6.80
2018-01-18T14:27:44.238Z,6.80
2018-01-18T14:30:12.536Z,6.80
2018-01-18T14:32:41.117Z,6.80
2018-01-18T14:35:09.439Z,6.70
2018-01-18T14:37:37.757Z,6.70
2018-01-18T14:40:06.046Z,6.50
2018-01-18T14:42:34.364Z,6.40
2018-01-18T14:45:02.664Z,6.30
2018-01-18T14:47:30.972Z,6.20
2018-01-18T14:49:59.255Z,6.10
2018-01-18T14:52:26.808Z,6.10
2018-01-18T14:54:55.097Z,6.00
2018-01-18T14:57:23.420Z,5.90
2018-01-18T14:59:51.715Z,5.80
2018-01-18T15:02:20.029Z,5.80
2018-01-18T15:04:48.319Z,5.70
2018-01-18T15:07:16.631Z,5.70
2018-01-18T15:09:44.944Z,5.70
2018-01-18T15:12:12.491Z,5.60
2018-01-18T15:14:40.775Z,5.60
2018-01-18T15:17:09.100Z,5.50
2018-01-18T15:19:37.393Z,5.50
2018-01-18T15:22:05.711Z,5.40
2018-01-18T15:24:33.996Z,5.40
2018-01-18T15:27:02.313Z,5.40
2018-01-18T15:29:30.600Z,5.40
2018-01-18T15:31:58.912Z,5.40
2018-01-18T15:34:27.208Z,5.30
2018-01-18T15:36:55.574Z,5.30
2018-01-18T15:39:23.866Z,5.30
2018-01-18T15:41:52.198Z,5.20
2018-01-18T15:44:20.484Z,5.20
2018-01-18T15:46:48.809Z,5.10
2018-01-18T15:49:17.096Z,5.10
2018-01-18T15:51:45.404Z,5.10
2018-01-18T15:54:13.724Z,5.10
2018-01-18T15:56:42.016Z,5.10
2018-01-18T15:59:10.336Z,5.10
2018-01-18T16:01:38.625Z,5.10
2018-01-18T16:04:06.944Z,5.10
2018-01-18T16:06:35.232Z,5.00
2018-01-18T16:09:03.553Z,5.00
2018-01-18T16:11:31.835Z,5.00
2018-01-18T16:14:00.148Z,5.00
2018-01-18T16:16:28.428Z,5.00
2018-01-18T16:18:56.736Z,5.00
2018-01-18T16:21:25.016Z,5.00
2018-01-18T16:23:53.332Z,5.00
2018-01-18T16:26:21.669Z,5.10
2018-01-18T16:28:49.964Z,5.00
2018-01-18T16:31:18.253Z,5.10
2018-01-18T16:33:46.573Z,5.10
2018-01-18T16:36:14.860Z,5.10
2018-01-18T16:38:43.167Z,5.00
2018-01-18T16:41:11.458Z,4.90
2018-01-18T16:43:39.785Z,4.90
2018-01-18T16:46:08.074Z,4.90
2018-01-18T16:48:36.359Z,4.80
2018-01-18T16:51:04.676Z,4.80
2018-01-18T16:53:32.959Z,4.70
2018-01-18T16:56:01.289Z,4.60
2018-01-18T16:58:29.576Z,4.60
2018-01-18T17:00:57.889Z,4.50
2018-01-18T17:03:26.180Z,4.40
2018-01-18T17:05:54.500Z,4.30
2018-01-18T17:08:22.788Z,4.30
2018-01-18T17:10:51.112Z,4.30
2018-01-18T17:13:19.395Z,4.20
2018-01-18T17:15:47.704Z,4.10
2018-01-18T17:18:15.988Z,4.00
2018-01-18T17:20:44.312Z,4.00
2018-01-18T17:23:11.832Z,4.00
2018-01-18T17:25:40.155Z,3.90
2018-01-18T17:28:08.443Z,3.80
2018-01-18T17:30:36.763Z,3.80
2018-01-18T17:33:05.072Z,3.70
2018-01-18T17:35:33.408Z,3.70
2018-01-18T17:38:01.696Z,3.70
2018-01-18T17:40:30.027Z,3.60
2018-01-18T17:42:58.335Z,3.60
2018-01-18T17:45:26.628Z,3.60
2018-01-18T17:47:54.948Z,3.60
2018-01-18T17:50:23.239Z,3.60
2018-01-18T17:52:51.577Z,3.60
2018-01-18T17:55:19.914Z,3.60
2018-01-18T17:57:48.492Z,3.60
2018-01-18T18:00:16.783Z,3.50
2018-01-18T18:02:45.100Z,3.50
2018-01-18T18:05:13.385Z,3.40
2018-01-18T18:07:41.735Z,3.30
2018-01-18T18:10:10.020Z,3.20
2018-01-18T18:12:38.344Z,3.10
2018-01-18T18:15:06.636Z,3.00
2018-01-18T18:17:34.955Z,2.90
2018-01-18T18:20:03.250Z,2.80
2018-01-18T18:22:31.564Z,2.80
2018-01-18T18:24:59.092Z,2.70
2018-01-18T18:27:27.412Z,2.60
2018-01-18T18:29:55.700Z,2.60
2018-01-18T18:32:24.020Z,2.60
2018-01-18T18:34:52.307Z,2.70
2018-01-18T18:37:20.623Z,2.80
2018-01-18T18:39:48.944Z,2.80
2018-01-18T18:42:23.125Z,2.90
2018-01-18T18:44:51.446Z,2.90
2018-01-18T18:47:19.731Z,2.90
2018-01-18T18:49:48.052Z,2.90
2018-01-18T18:52:16.340Z,2.90
2018-01-18T18:54:44.656Z,2.90
2018-01-18T18:57:12.952Z,2.90
2018-01-18T18:59:41.268Z,3.00
2018-01-18T19:02:09.556Z,3.00
2018-01-18T19:04:37.867Z,3.00
2018-01-18T19:07:06.151Z,3.10
2018-01-18T19:09:34.476Z,3.10
2018-01-18T19:12:02.764Z,3.00
2018-01-18T19:14:31.082Z,3.00
2018-01-18T19:16:59.383Z,3.00
2018-01-18T19:19:27.704Z,3.00
2018-01-18T19:21:55.996Z,2.90
2018-01-18T19:24:24.316Z,2.90
2018-01-18T19:26:52.603Z,2.90
2018-01-18T19:29:20.925Z,3.00
2018-01-18T19:31:49.212Z,3.00
2018-01-18T19:34:17.505Z,3.00
2018-01-18T19:36:45.828Z,3.00
2018-01-18T19:39:14.112Z,3.00
2018-01-18T19:41:42.428Z,3.00
2018-01-18T19:44:10.704Z,3.00
2018-01-18T19:46:39.027Z,3.00
2018-01-18T19:49:07.316Z,3.00
2018-01-18T19:51:35.636Z,3.00
2018-01-18T19:54:03.926Z,3.10
2018-01-18T19:56:32.266Z,3.10
2018-01-18T19:59:00.561Z,3.10
2018-01-18T20:01:28.876Z,3.10
2018-01-18T20:03:57.169Z,3.20
2018-01-18T20:06:24.715Z,3.20
2018-01-18T20:08:53.008Z,3.20
2018-01-18T20:11:21.320Z,3.20
2018-01-18T20:13:49.601Z,3.20
2018-01-18T20:16:17.916Z,3.30
2018-01-18T20:18:46.204Z,3.30
2018-01-18T20:21:14.564Z,3.30
2018-01-18T20:23:42.840Z,3.30
2018-01-18T20:26:11.128Z,3.30
2018-01-18T20:28:39.448Z,3.30
2018-01-18T20:31:07.739Z,3.30
2018-01-18T20:33:36.066Z,3.30
2018-01-18T20:36:03.596Z,3.30
2018-01-18T20:38:31.911Z,3.30
2018-01-18T20:41:00.199Z,3.30
2018-01-18T20:43:27.743Z,3.30
2018-01-18T20:45:55.264Z,3.40
2018-01-18T20:48:23.585Z,3.40
2018-01-18T20:50:51.873Z,3.40
2018-01-18T20:53:20.192Z,3.40
2018-01-18T20:55:48.472Z,3.50
2018-01-18T20:58:16.792Z,3.50
2018-01-18T21:00:45.080Z,3.60
2018-01-18T21:03:13.409Z,3.60
2018-01-18T21:05:41.697Z,3.70
2018-01-18T21:08:10.011Z,3.70
2018-01-18T21:10:38.292Z,3.70
2018-01-18T21:13:06.612Z,3.70
2018-01-18T21:15:34.897Z,3.80
2018-01-18T21:18:03.213Z,3.80
2018-01-18T21:20:31.500Z,3.80
2018-01-18T21:22:59.807Z,3.80
2018-01-18T21:25:28.083Z,3.80
2018-01-18T21:27:56.395Z,3.80
2018-01-18T21:30:24.689Z,3.80
2018-01-18T21:32:53.005Z,3.80
2018-01-18T21:35:21.297Z,3.80
2018-01-18T21:37:49.607Z,3.70
2018-01-18T21:40:17.925Z,3.70
2018-01-18T21:42:46.207Z,3.60
2018-01-18T21:45:14.533Z,3.60
2018-01-18T21:47:42.056Z,3.60
2018-01-18T21:50:10.376Z,3.60
2018-01-18T21:52:38.669Z,3.60
2018-01-18T21:55:06.215Z,3.60
2018-01-18T21:57:34.495Z,3.60
2018-01-18T22:00:02.807Z,3.50
2018-01-18T22:02:31.083Z,3.50
2018-01-18T22:04:59.403Z,3.50
2018-01-18T22:07:27.690Z,3.50
2018-01-18T22:09:56.000Z,3.50
2018-01-18T22:12:24.283Z,3.50
2018-01-18T22:14:52.587Z,3.50
2018-01-18T22:17:20.873Z,3.50
2018-01-18T22:19:49.183Z,3.50
2018-01-18T22:22:17.464Z,3.50
2018-01-18T22:24:45.772Z,3.40
2018-01-18T22:27:14.058Z,3.40
2018-01-18T22:29:42.397Z,3.40
2018-01-18T22:32:10.690Z,3.40
2018-01-18T22:34:39.013Z,3.40
2018-01-18T22:37:07.291Z,3.30
2018-01-18T22:39:35.595Z,3.30
2018-01-18T22:42:03.880Z,3.30
2018-01-18T22:44:32.195Z,3.20
2018-01-18T22:47:00.480Z,3.10
2018-01-18T22:49:28.790Z,3.10
2018-01-18T22:51:57.072Z,3.10
2018-01-18T22:54:25.391Z,3.10
2018-01-18T22:56:53.671Z,3.10
2018-01-18T22:59:21.988Z,3.10
2018-01-18T23:01:50.296Z,3.10
2018-01-18T23:04:18.607Z,3.00
2018-01-18T23:06:46.893Z,3.00
2018-01-18T23:09:15.203Z,2.90
2018-01-18T23:11:43.484Z,2.90
2018-01-18T23:14:11.793Z,2.80
2018-01-18T23:16:40.081Z,2.80
2018-01-18T23:19:08.379Z,2.80
2018-01-18T23:21:36.684Z,2.70
2018-01-18T23:24:04.972Z,2.70
2018-01-18T23:26:33.275Z,2.60
2018-01-18T23:29:01.564Z,2.60
2018-01-18T23:31:29.866Z,2.50
2018-01-18T23:33:58.152Z,2.50
2018-01-18T23:36:26.501Z,2.50
2018-01-18T23:38:54.765Z,2.50
2018-01-18T23:41:23.071Z,2.50
2018-01-18T23:43:51.360Z,2.60
2018-01-18T23:46:19.674Z,2.60
2018-01-18T23:48:47.956Z,2.70
2018-01-18T23:51:16.264Z,2.70
2018-01-18T23:53:44.544Z,2.70
2018-01-18T23:56:12.847Z,2.70
2018-01-18T23:58:41.136Z,2.60
